La Salle, Colorado
Current Conditions -  °F | °C
As of 10:15 AM on Saturday 20 Dec 2014 (Local Time) from KGXY Reporting Station
Few Clouds Few Clouds  
Wind Chill: 28°   Ceiling: Unl
Heat Index: 28°   Visibility: 10mi
Dew Point: 16°   Wind: 0mph
Humidity: 59%   Direction: NA
Pressure: 30.02"   Gusts: NA
Location:  40.35°N, 104.7°W
Report Text: KGXY 201715Z AUTO 00000KT 10SM FEW075 M02/M09 A3002 RMK AO1
Loading
Personal Weather Stations






























Interactive Weather Map New forecast layout! Learn more

10-Day Weather Forecast

Advertisements
Track Severe Weather on mobile